sensor_id;sensor_type;location;lat;lon;timestamp;P1;durP1;ratioP1;P2;durP2;ratioP2
4634;SDS011;2330;48.158;11.816;2023-07-13T00:00:11;3.13;;;2.67;;
4634;SDS011;2330;48.158;11.816;2023-07-13T00:02:41;5.83;;;3.10;;
4634;SDS011;2330;48.158;11.816;2023-07-13T00:05:08;5.03;;;3.00;;
4634;SDS011;2330;48.158;11.816;2023-07-13T00:07:35;5.23;;;2.57;;
4634;SDS011;2330;48.158;11.816;2023-07-13T00:10:03;3.17;;;2.57;;
4634;SDS011;2330;48.158;11.816;2023-07-13T00:12:32;4.17;;;2.63;;
4634;SDS011;2330;48.158;11.816;2023-07-13T00:15:01;5.87;;;3.00;;
4634;SDS011;2330;48.158;11.816;2023-07-13T00:17:31;7.97;;;3.00;;
4634;SDS011;2330;48.158;11.816;2023-07-13T00:19:58;2.70;;;2.50;;
4634;SDS011;2330;48.158;11.816;2023-07-13T00:22:25;4.97;;;2.80;;
4634;SDS011;2330;48.158;11.816;2023-07-13T00:24:52;3.83;;;2.60;;
4634;SDS011;2330;48.158;11.816;2023-07-13T00:27:22;3.27;;;2.97;;
4634;SDS011;2330;48.158;11.816;2023-07-13T00:29:52;5.80;;;3.30;;
4634;SDS011;2330;48.158;11.816;2023-07-13T00:32:19;4.13;;;2.60;;
4634;SDS011;2330;48.158;11.816;2023-07-13T00:34:45;4.63;;;2.47;;
4634;SDS011;2330;48.158;11.816;2023-07-13T00:37:13;3.27;;;2.40;;
4634;SDS011;2330;48.158;11.816;2023-07-13T00:39:40;5.30;;;3.00;;
4634;SDS011;2330;48.158;11.816;2023-07-13T00:42:06;8.37;;;2.77;;
4634;SDS011;2330;48.158;11.816;2023-07-13T00:44:33;2.63;;;2.33;;
4634;SDS011;2330;48.158;11.816;2023-07-13T00:47:00;6.23;;;2.53;;
4634;SDS011;2330;48.158;11.816;2023-07-13T00:49:29;2.80;;;2.50;;
4634;SDS011;2330;48.158;11.816;2023-07-13T00:51:59;7.83;;;2.50;;
4634;SDS011;2330;48.158;11.816;2023-07-13T00:54:44;5.00;;;2.60;;
4634;SDS011;2330;48.158;11.816;2023-07-13T00:57:14;5.33;;;2.93;;
4634;SDS011;2330;48.158;11.816;2023-07-13T00:59:47;4.23;;;2.30;;
4634;SDS011;2330;48.158;11.816;2023-07-13T01:02:18;3.53;;;2.30;;
4634;SDS011;2330;48.158;11.816;2023-07-13T01:04:45;3.40;;;2.50;;
4634;SDS011;2330;48.158;11.816;2023-07-13T01:07:12;2.53;;;2.13;;
4634;SDS011;2330;48.158;11.816;2023-07-13T01:09:39;6.90;;;2.40;;
4634;SDS011;2330;48.158;11.816;2023-07-13T01:12:06;9.03;;;2.43;;
4634;SDS011;2330;48.158;11.816;2023-07-13T01:14:34;5.70;;;2.57;;
4634;SDS011;2330;48.158;11.816;2023-07-13T01:17:01;4.43;;;2.83;;
4634;SDS011;2330;48.158;11.816;2023-07-13T01:19:36;6.17;;;2.40;;
4634;SDS011;2330;48.158;11.816;2023-07-13T01:22:07;2.33;;;2.13;;
4634;SDS011;2330;48.158;11.816;2023-07-13T01:24:38;2.03;;;1.83;;
4634;SDS011;2330;48.158;11.816;2023-07-13T01:27:07;3.27;;;2.67;;
4634;SDS011;2330;48.158;11.816;2023-07-13T01:29:36;4.30;;;2.60;;
4634;SDS011;2330;48.158;11.816;2023-07-13T01:32:10;5.70;;;2.70;;
4634;SDS011;2330;48.158;11.816;2023-07-13T01:34:38;6.27;;;2.17;;
4634;SDS011;2330;48.158;11.816;2023-07-13T01:37:09;3.07;;;2.27;;
4634;SDS011;2330;48.158;11.816;2023-07-13T01:39:37;6.97;;;3.13;;
4634;SDS011;2330;48.158;11.816;2023-07-13T01:42:04;2.17;;;1.97;;
4634;SDS011;2330;48.158;11.816;2023-07-13T01:44:31;2.80;;;2.23;;
4634;SDS011;2330;48.158;11.816;2023-07-13T01:46:58;3.77;;;2.30;;
4634;SDS011;2330;48.158;11.816;2023-07-13T01:49:25;4.60;;;2.77;;
4634;SDS011;2330;48.158;11.816;2023-07-13T01:51:52;2.80;;;2.50;;
4634;SDS011;2330;48.158;11.816;2023-07-13T01:54:19;6.73;;;2.57;;
4634;SDS011;2330;48.158;11.816;2023-07-13T01:56:45;4.70;;;2.90;;
4634;SDS011;2330;48.158;11.816;2023-07-13T01:59:12;3.63;;;2.53;;
4634;SDS011;2330;48.158;11.816;2023-07-13T02:01:39;4.63;;;2.53;;
4634;SDS011;2330;48.158;11.816;2023-07-13T02:04:06;7.57;;;2.50;;
4634;SDS011;2330;48.158;11.816;2023-07-13T02:06:33;4.00;;;2.47;;
4634;SDS011;2330;48.158;11.816;2023-07-13T02:09:00;11.00;;;2.40;;
4634;SDS011;2330;48.158;11.816;2023-07-13T02:11:27;4.47;;;2.10;;
4634;SDS011;2330;48.158;11.816;2023-07-13T02:13:59;4.40;;;2.77;;
4634;SDS011;2330;48.158;11.816;2023-07-13T02:16:28;3.90;;;2.40;;
4634;SDS011;2330;48.158;11.816;2023-07-13T02:18:56;2.90;;;2.20;;
4634;SDS011;2330;48.158;11.816;2023-07-13T02:21:23;9.20;;;2.30;;
4634;SDS011;2330;48.158;11.816;2023-07-13T02:23:50;3.17;;;2.27;;
4634;SDS011;2330;48.158;11.816;2023-07-13T02:26:18;4.30;;;2.60;;
4634;SDS011;2330;48.158;11.816;2023-07-13T02:28:45;5.63;;;2.43;;
4634;SDS011;2330;48.158;11.816;2023-07-13T02:31:13;5.63;;;2.73;;
4634;SDS011;2330;48.158;11.816;2023-07-13T02:33:42;6.00;;;2.80;;
4634;SDS011;2330;48.158;11.816;2023-07-13T02:36:10;2.23;;;2.03;;
4634;SDS011;2330;48.158;11.816;2023-07-13T02:38:37;3.70;;;2.87;;
4634;SDS011;2330;48.158;11.816;2023-07-13T02:41:05;5.27;;;3.00;;
4634;SDS011;2330;48.158;11.816;2023-07-13T02:43:35;6.30;;;2.97;;
4634;SDS011;2330;48.158;11.816;2023-07-13T02:46:03;5.20;;;2.80;;
4634;SDS011;2330;48.158;11.816;2023-07-13T02:48:35;3.20;;;2.47;;
4634;SDS011;2330;48.158;11.816;2023-07-13T02:51:03;2.60;;;2.40;;
4634;SDS011;2330;48.158;11.816;2023-07-13T02:53:30;7.07;;;3.40;;
4634;SDS011;2330;48.158;11.816;2023-07-13T02:55:57;5.90;;;3.60;;
4634;SDS011;2330;48.158;11.816;2023-07-13T02:58:24;6.60;;;3.67;;
4634;SDS011;2330;48.158;11.816;2023-07-13T03:00:51;11.60;;;3.07;;
4634;SDS011;2330;48.158;11.816;2023-07-13T03:03:18;9.10;;;3.30;;
4634;SDS011;2330;48.158;11.816;2023-07-13T03:05:45;4.93;;;2.83;;
4634;SDS011;2330;48.158;11.816;2023-07-13T03:08:16;6.40;;;3.63;;
4634;SDS011;2330;48.158;11.816;2023-07-13T03:10:44;5.77;;;3.60;;
4634;SDS011;2330;48.158;11.816;2023-07-13T03:13:11;6.43;;;3.10;;
4634;SDS011;2330;48.158;11.816;2023-07-13T03:15:38;5.00;;;3.60;;
4634;SDS011;2330;48.158;11.816;2023-07-13T03:18:05;5.10;;;3.50;;
4634;SDS011;2330;48.158;11.816;2023-07-13T03:20:33;5.07;;;3.40;;
4634;SDS011;2330;48.158;11.816;2023-07-13T03:23:00;7.30;;;3.30;;
4634;SDS011;2330;48.158;11.816;2023-07-13T03:25:27;5.70;;;4.03;;
4634;SDS011;2330;48.158;11.816;2023-07-13T03:27:54;4.23;;;3.77;;
4634;SDS011;2330;48.158;11.816;2023-07-13T03:30:21;14.43;;;4.23;;
4634;SDS011;2330;48.158;11.816;2023-07-13T03:32:47;7.20;;;4.03;;
4634;SDS011;2330;48.158;11.816;2023-07-13T03:35:14;8.57;;;4.23;;
4634;SDS011;2330;48.158;11.816;2023-07-13T03:37:41;3.77;;;3.47;;
4634;SDS011;2330;48.158;11.816;2023-07-13T03:40:09;6.53;;;4.40;;
4634;SDS011;2330;48.158;11.816;2023-07-13T03:42:36;8.43;;;3.93;;
4634;SDS011;2330;48.158;11.816;2023-07-13T03:45:03;8.13;;;3.90;;
4634;SDS011;2330;48.158;11.816;2023-07-13T03:47:31;5.33;;;3.90;;
4634;SDS011;2330;48.158;11.816;2023-07-13T03:49:58;4.30;;;3.37;;
4634;SDS011;2330;48.158;11.816;2023-07-13T03:52:25;7.20;;;3.80;;
4634;SDS011;2330;48.158;11.816;2023-07-13T03:54:52;4.17;;;3.80;;
4634;SDS011;2330;48.158;11.816;2023-07-13T03:57:18;4.57;;;3.90;;
4634;SDS011;2330;48.158;11.816;2023-07-13T03:59:45;3.80;;;3.50;;
4634;SDS011;2330;48.158;11.816;2023-07-13T04:02:12;6.90;;;4.43;;
4634;SDS011;2330;48.158;11.816;2023-07-13T04:04:39;5.03;;;3.83;;
4634;SDS011;2330;48.158;11.816;2023-07-13T04:07:07;7.83;;;4.17;;
4634;SDS011;2330;48.158;11.816;2023-07-13T04:09:35;6.63;;;4.20;;
4634;SDS011;2330;48.158;11.816;2023-07-13T04:12:02;4.87;;;3.83;;
4634;SDS011;2330;48.158;11.816;2023-07-13T04:14:29;4.10;;;3.40;;
4634;SDS011;2330;48.158;11.816;2023-07-13T04:16:56;4.60;;;4.00;;
4634;SDS011;2330;48.158;11.816;2023-07-13T04:19:23;4.50;;;3.47;;
4634;SDS011;2330;48.158;11.816;2023-07-13T04:21:50;6.37;;;4.03;;
4634;SDS011;2330;48.158;11.816;2023-07-13T04:24:17;10.90;;;3.90;;
4634;SDS011;2330;48.158;11.816;2023-07-13T04:26:45;5.20;;;3.70;;
4634;SDS011;2330;48.158;11.816;2023-07-13T04:29:11;5.10;;;3.70;;
4634;SDS011;2330;48.158;11.816;2023-07-13T04:31:38;10.40;;;3.70;;
4634;SDS011;2330;48.158;11.816;2023-07-13T04:34:05;8.87;;;3.57;;
4634;SDS011;2330;48.158;11.816;2023-07-13T04:36:32;5.70;;;3.47;;
4634;SDS011;2330;48.158;11.816;2023-07-13T04:38:59;4.90;;;3.30;;
4634;SDS011;2330;48.158;11.816;2023-07-13T04:41:26;5.70;;;4.87;;
4634;SDS011;2330;48.158;11.816;2023-07-13T04:43:54;5.53;;;3.53;;
4634;SDS011;2330;48.158;11.816;2023-07-13T04:46:22;7.50;;;3.37;;
4634;SDS011;2330;48.158;11.816;2023-07-13T04:48:49;5.77;;;3.30;;
4634;SDS011;2330;48.158;11.816;2023-07-13T04:51:19;9.13;;;3.70;;
4634;SDS011;2330;48.158;11.816;2023-07-13T04:53:46;4.07;;;3.00;;
4634;SDS011;2330;48.158;11.816;2023-07-13T04:56:13;8.70;;;3.03;;
4634;SDS011;2330;48.158;11.816;2023-07-13T04:58:39;4.77;;;3.17;;
4634;SDS011;2330;48.158;11.816;2023-07-13T05:01:06;5.47;;;3.63;;
4634;SDS011;2330;48.158;11.816;2023-07-13T05:03:35;7.63;;;3.43;;
4634;SDS011;2330;48.158;11.816;2023-07-13T05:06:03;5.57;;;3.90;;
4634;SDS011;2330;48.158;11.816;2023-07-13T05:08:31;4.67;;;3.87;;
4634;SDS011;2330;48.158;11.816;2023-07-13T05:10:59;3.70;;;3.30;;
4634;SDS011;2330;48.158;11.816;2023-07-13T05:13:27;4.73;;;3.60;;
4634;SDS011;2330;48.158;11.816;2023-07-13T05:15:57;7.03;;;3.60;;
4634;SDS011;2330;48.158;11.816;2023-07-13T05:18:25;4.00;;;2.70;;
4634;SDS011;2330;48.158;11.816;2023-07-13T05:20:58;3.80;;;3.00;;
4634;SDS011;2330;48.158;11.816;2023-07-13T05:23:26;8.40;;;6.07;;
4634;SDS011;2330;48.158;11.816;2023-07-13T05:25:53;4.83;;;3.37;;
4634;SDS011;2330;48.158;11.816;2023-07-13T05:28:20;4.10;;;3.30;;
4634;SDS011;2330;48.158;11.816;2023-07-13T05:30:48;4.03;;;3.00;;
4634;SDS011;2330;48.158;11.816;2023-07-13T05:33:16;3.83;;;3.13;;
4634;SDS011;2330;48.158;11.816;2023-07-13T05:35:43;4.70;;;3.67;;
4634;SDS011;2330;48.158;11.816;2023-07-13T05:38:10;4.80;;;3.60;;
4634;SDS011;2330;48.158;11.816;2023-07-13T05:40:37;6.43;;;3.50;;
4634;SDS011;2330;48.158;11.816;2023-07-13T05:43:04;3.87;;;3.03;;
4634;SDS011;2330;48.158;11.816;2023-07-13T05:45:31;6.33;;;2.50;;
4634;SDS011;2330;48.158;11.816;2023-07-13T05:47:58;4.13;;;2.83;;
4634;SDS011;2330;48.158;11.816;2023-07-13T05:50:25;3.80;;;2.70;;
4634;SDS011;2330;48.158;11.816;2023-07-13T05:52:53;3.10;;;2.80;;
4634;SDS011;2330;48.158;11.816;2023-07-13T05:55:20;5.60;;;3.00;;
4634;SDS011;2330;48.158;11.816;2023-07-13T05:57:47;3.70;;;3.20;;
4634;SDS011;2330;48.158;11.816;2023-07-13T06:00:14;3.20;;;2.90;;
4634;SDS011;2330;48.158;11.816;2023-07-13T06:02:41;9.30;;;3.40;;
4634;SDS011;2330;48.158;11.816;2023-07-13T06:05:08;6.37;;;4.00;;
4634;SDS011;2330;48.158;11.816;2023-07-13T06:07:35;5.13;;;3.13;;
4634;SDS011;2330;48.158;11.816;2023-07-13T06:10:02;6.87;;;4.27;;
4634;SDS011;2330;48.158;11.816;2023-07-13T06:12:29;7.87;;;3.57;;
4634;SDS011;2330;48.158;11.816;2023-07-13T06:14:56;3.40;;;2.90;;
4634;SDS011;2330;48.158;11.816;2023-07-13T06:17:23;3.53;;;3.13;;
4634;SDS011;2330;48.158;11.816;2023-07-13T06:19:50;4.30;;;3.13;;
4634;SDS011;2330;48.158;11.816;2023-07-13T06:22:17;4.67;;;3.07;;
4634;SDS011;2330;48.158;11.816;2023-07-13T06:24:44;4.60;;;3.30;;
4634;SDS011;2330;48.158;11.816;2023-07-13T06:27:10;6.50;;;3.17;;
4634;SDS011;2330;48.158;11.816;2023-07-13T06:29:37;14.73;;;4.07;;
4634;SDS011;2330;48.158;11.816;2023-07-13T06:32:04;5.50;;;2.57;;
4634;SDS011;2330;48.158;11.816;2023-07-13T06:34:31;4.73;;;3.00;;
4634;SDS011;2330;48.158;11.816;2023-07-13T06:36:58;7.60;;;3.17;;
4634;SDS011;2330;48.158;11.816;2023-07-13T06:39:25;6.60;;;2.93;;
4634;SDS011;2330;48.158;11.816;2023-07-13T06:41:52;11.00;;;2.70;;
4634;SDS011;2330;48.158;11.816;2023-07-13T06:44:19;4.00;;;2.70;;
4634;SDS011;2330;48.158;11.816;2023-07-13T06:46:46;11.03;;;3.23;;
4634;SDS011;2330;48.158;11.816;2023-07-13T06:49:13;8.77;;;2.97;;
4634;SDS011;2330;48.158;11.816;2023-07-13T06:51:39;5.67;;;3.50;;
4634;SDS011;2330;48.158;11.816;2023-07-13T06:54:06;5.87;;;3.57;;
4634;SDS011;2330;48.158;11.816;2023-07-13T06:56:33;5.27;;;3.77;;
4634;SDS011;2330;48.158;11.816;2023-07-13T06:59:00;7.37;;;3.87;;
4634;SDS011;2330;48.158;11.816;2023-07-13T07:01:27;5.13;;;3.30;;
4634;SDS011;2330;48.158;11.816;2023-07-13T07:03:54;3.60;;;2.90;;
4634;SDS011;2330;48.158;11.816;2023-07-13T07:06:21;3.80;;;3.20;;
4634;SDS011;2330;48.158;11.816;2023-07-13T07:08:52;4.90;;;3.03;;
4634;SDS011;2330;48.158;11.816;2023-07-13T07:11:20;3.83;;;3.20;;
4634;SDS011;2330;48.158;11.816;2023-07-13T07:13:51;4.03;;;3.50;;
4634;SDS011;2330;48.158;11.816;2023-07-13T07:16:19;6.30;;;3.10;;
4634;SDS011;2330;48.158;11.816;2023-07-13T07:18:47;4.50;;;3.10;;
4634;SDS011;2330;48.158;11.816;2023-07-13T07:21:14;6.20;;;3.27;;
4634;SDS011;2330;48.158;11.816;2023-07-13T07:23:41;5.03;;;3.00;;
4634;SDS011;2330;48.158;11.816;2023-07-13T07:26:09;4.53;;;3.40;;
4634;SDS011;2330;48.158;11.816;2023-07-13T07:28:36;4.87;;;2.90;;
4634;SDS011;2330;48.158;11.816;2023-07-13T07:31:06;7.10;;;2.90;;
4634;SDS011;2330;48.158;11.816;2023-07-13T07:33:36;5.87;;;2.63;;
4634;SDS011;2330;48.158;11.816;2023-07-13T07:36:03;4.77;;;2.53;;
4634;SDS011;2330;48.158;11.816;2023-07-13T07:38:33;4.23;;;2.80;;
4634;SDS011;2330;48.158;11.816;2023-07-13T07:41:02;6.33;;;2.90;;
4634;SDS011;2330;48.158;11.816;2023-07-13T07:43:33;3.33;;;2.00;;
4634;SDS011;2330;48.158;11.816;2023-07-13T07:46:01;4.40;;;2.50;;
4634;SDS011;2330;48.158;11.816;2023-07-13T07:48:29;4.30;;;2.60;;
4634;SDS011;2330;48.158;11.816;2023-07-13T07:50:56;6.87;;;2.40;;
4634;SDS011;2330;48.158;11.816;2023-07-13T07:53:23;4.97;;;2.67;;
4634;SDS011;2330;48.158;11.816;2023-07-13T07:55:50;8.57;;;2.73;;
4634;SDS011;2330;48.158;11.816;2023-07-13T07:58:20;3.93;;;2.33;;
4634;SDS011;2330;48.158;11.816;2023-07-13T08:00:50;4.60;;;2.80;;
4634;SDS011;2330;48.158;11.816;2023-07-13T08:03:20;6.00;;;2.50;;
4634;SDS011;2330;48.158;11.816;2023-07-13T08:05:52;5.13;;;2.90;;
4634;SDS011;2330;48.158;11.816;2023-07-13T08:08:22;5.93;;;2.50;;
4634;SDS011;2330;48.158;11.816;2023-07-13T08:10:49;6.80;;;2.33;;
4634;SDS011;2330;48.158;11.816;2023-07-13T08:13:16;3.00;;;2.03;;
4634;SDS011;2330;48.158;11.816;2023-07-13T08:15:43;5.50;;;2.57;;
4634;SDS011;2330;48.158;11.816;2023-07-13T08:18:11;5.47;;;2.47;;
4634;SDS011;2330;48.158;11.816;2023-07-13T08:20:38;5.10;;;2.67;;
4634;SDS011;2330;48.158;11.816;2023-07-13T08:23:06;6.97;;;3.00;;
4634;SDS011;2330;48.158;11.816;2023-07-13T08:25:35;5.00;;;2.90;;
4634;SDS011;2330;48.158;11.816;2023-07-13T08:28:05;2.73;;;2.30;;
4634;SDS011;2330;48.158;11.816;2023-07-13T08:30:31;6.80;;;2.47;;
4634;SDS011;2330;48.158;11.816;2023-07-13T08:32:58;4.03;;;2.50;;
4634;SDS011;2330;48.158;11.816;2023-07-13T08:35:25;5.03;;;2.50;;
4634;SDS011;2330;48.158;11.816;2023-07-13T08:37:52;5.77;;;2.50;;
4634;SDS011;2330;48.158;11.816;2023-07-13T08:40:19;5.60;;;2.23;;
4634;SDS011;2330;48.158;11.816;2023-07-13T08:42:55;4.43;;;2.37;;
4634;SDS011;2330;48.158;11.816;2023-07-13T08:45:38;10.90;;;2.83;;
4634;SDS011;2330;48.158;11.816;2023-07-13T08:48:21;2.97;;;2.30;;
4634;SDS011;2330;48.158;11.816;2023-07-13T08:53:31;6.03;;;2.60;;
4634;SDS011;2330;48.158;11.816;2023-07-13T08:56:04;6.27;;;2.87;;
4634;SDS011;2330;48.158;11.816;2023-07-13T08:58:36;9.50;;;2.53;;
4634;SDS011;2330;48.158;11.816;2023-07-13T09:03:59;7.07;;;2.43;;
4634;SDS011;2330;48.158;11.816;2023-07-13T09:06:43;3.43;;;2.53;;
4634;SDS011;2330;48.158;11.816;2023-07-13T09:09:29;2.83;;;2.50;;
4634;SDS011;2330;48.158;11.816;2023-07-13T09:15:40;2.57;;;2.33;;
4634;SDS011;2330;48.158;11.816;2023-07-13T09:20:57;2.43;;;2.23;;
4634;SDS011;2330;48.158;11.816;2023-07-13T09:23:29;5.73;;;2.10;;
4634;SDS011;2330;48.158;11.816;2023-07-13T09:26:01;4.17;;;1.60;;
4634;SDS011;2330;48.158;11.816;2023-07-13T09:28:35;5.47;;;2.50;;
4634;SDS011;2330;48.158;11.816;2023-07-13T09:31:10;4.00;;;2.50;;
4634;SDS011;2330;48.158;11.816;2023-07-13T09:33:45;5.90;;;1.93;;
4634;SDS011;2330;48.158;11.816;2023-07-13T09:36:17;3.97;;;1.80;;
4634;SDS011;2330;48.158;11.816;2023-07-13T09:41:41;2.10;;;1.73;;
4634;SDS011;2330;48.158;11.816;2023-07-13T09:44:15;2.00;;;1.57;;
4634;SDS011;2330;48.158;11.816;2023-07-13T09:46:51;2.97;;;1.77;;
4634;SDS011;2330;48.158;11.816;2023-07-13T09:49:27;4.80;;;1.90;;
4634;SDS011;2330;48.158;11.816;2023-07-13T09:52:00;2.23;;;1.37;;
4634;SDS011;2330;48.158;11.816;2023-07-13T09:54:33;2.53;;;1.87;;
4634;SDS011;2330;48.158;11.816;2023-07-13T09:57:02;4.60;;;2.10;;
4634;SDS011;2330;48.158;11.816;2023-07-13T09:59:32;22.73;;;4.07;;
4634;SDS011;2330;48.158;11.816;2023-07-13T10:02:00;4.40;;;2.47;;
4634;SDS011;2330;48.158;11.816;2023-07-13T10:04:31;6.33;;;1.93;;
4634;SDS011;2330;48.158;11.816;2023-07-13T10:07:06;5.83;;;1.70;;
4634;SDS011;2330;48.158;11.816;2023-07-13T10:09:54;6.50;;;2.00;;
4634;SDS011;2330;48.158;11.816;2023-07-13T10:12:23;3.73;;;1.43;;
4634;SDS011;2330;48.158;11.816;2023-07-13T10:14:52;3.70;;;1.73;;
4634;SDS011;2330;48.158;11.816;2023-07-13T10:17:38;4.07;;;1.67;;
4634;SDS011;2330;48.158;11.816;2023-07-13T10:20:06;13.57;;;1.77;;
4634;SDS011;2330;48.158;11.816;2023-07-13T10:23:13;2.03;;;1.57;;
4634;SDS011;2330;48.158;11.816;2023-07-13T10:25:38;4.07;;;1.60;;
4634;SDS011;2330;48.158;11.816;2023-07-13T10:28:19;4.83;;;2.80;;
4634;SDS011;2330;48.158;11.816;2023-07-13T10:31:06;5.57;;;1.80;;
4634;SDS011;2330;48.158;11.816;2023-07-13T10:33:40;2.50;;;1.40;;
4634;SDS011;2330;48.158;11.816;2023-07-13T10:38:46;4.83;;;1.47;;
4634;SDS011;2330;48.158;11.816;2023-07-13T10:41:17;2.47;;;1.27;;
4634;SDS011;2330;48.158;11.816;2023-07-13T10:43:48;3.33;;;1.47;;
4634;SDS011;2330;48.158;11.816;2023-07-13T10:46:18;2.70;;;1.13;;
4634;SDS011;2330;48.158;11.816;2023-07-13T10:48:51;1.60;;;1.13;;
4634;SDS011;2330;48.158;11.816;2023-07-13T10:51:21;5.47;;;1.60;;
4634;SDS011;2330;48.158;11.816;2023-07-13T10:54:10;3.47;;;1.20;;
4634;SDS011;2330;48.158;11.816;2023-07-13T10:56:46;3.57;;;1.40;;
4634;SDS011;2330;48.158;11.816;2023-07-13T10:59:24;11.87;;;1.33;;
4634;SDS011;2330;48.158;11.816;2023-07-13T11:01:57;4.90;;;1.80;;
4634;SDS011;2330;48.158;11.816;2023-07-13T11:04:39;3.20;;;1.60;;
4634;SDS011;2330;48.158;11.816;2023-07-13T11:07:25;6.40;;;1.37;;
4634;SDS011;2330;48.158;11.816;2023-07-13T11:09:58;4.10;;;1.37;;
4634;SDS011;2330;48.158;11.816;2023-07-13T11:12:51;4.67;;;2.00;;
4634;SDS011;2330;48.158;11.816;2023-07-13T11:15:32;3.43;;;1.63;;
4634;SDS011;2330;48.158;11.816;2023-07-13T11:18:21;6.30;;;2.40;;
4634;SDS011;2330;48.158;11.816;2023-07-13T11:20:51;3.40;;;1.60;;
4634;SDS011;2330;48.158;11.816;2023-07-13T11:23:20;4.90;;;1.57;;
4634;SDS011;2330;48.158;11.816;2023-07-13T11:25:54;3.03;;;1.90;;
4634;SDS011;2330;48.158;11.816;2023-07-13T11:28:22;4.90;;;1.37;;
4634;SDS011;2330;48.158;11.816;2023-07-13T11:36:15;5.43;;;1.90;;
4634;SDS011;2330;48.158;11.816;2023-07-13T11:38:49;2.00;;;1.43;;
4634;SDS011;2330;48.158;11.816;2023-07-13T11:44:24;5.10;;;1.50;;
4634;SDS011;2330;48.158;11.816;2023-07-13T11:46:53;3.47;;;2.00;;
4634;SDS011;2330;48.158;11.816;2023-07-13T11:49:25;3.33;;;1.80;;
4634;SDS011;2330;48.158;11.816;2023-07-13T11:51:53;3.23;;;1.60;;
4634;SDS011;2330;48.158;11.816;2023-07-13T11:54:25;3.47;;;1.57;;
4634;SDS011;2330;48.158;11.816;2023-07-13T11:57:06;5.07;;;2.40;;
4634;SDS011;2330;48.158;11.816;2023-07-13T11:59:57;3.77;;;1.80;;
4634;SDS011;2330;48.158;11.816;2023-07-13T12:02:29;4.73;;;1.57;;
4634;SDS011;2330;48.158;11.816;2023-07-13T12:05:00;2.60;;;1.33;;
4634;SDS011;2330;48.158;11.816;2023-07-13T12:07:30;3.30;;;1.30;;
4634;SDS011;2330;48.158;11.816;2023-07-13T12:10:02;1.83;;;1.47;;
4634;SDS011;2330;48.158;11.816;2023-07-13T12:12:36;5.90;;;1.70;;
4634;SDS011;2330;48.158;11.816;2023-07-13T12:15:07;6.77;;;1.40;;
4634;SDS011;2330;48.158;11.816;2023-07-13T12:17:34;2.00;;;1.43;;
4634;SDS011;2330;48.158;11.816;2023-07-13T12:20:03;5.90;;;1.83;;
4634;SDS011;2330;48.158;11.816;2023-07-13T12:23:00;4.63;;;1.57;;
4634;SDS011;2330;48.158;11.816;2023-07-13T12:25:32;9.47;;;2.10;;
4634;SDS011;2330;48.158;11.816;2023-07-13T12:27:59;5.10;;;1.40;;
4634;SDS011;2330;48.158;11.816;2023-07-13T12:30:47;3.03;;;1.30;;
4634;SDS011;2330;48.158;11.816;2023-07-13T12:33:15;3.80;;;1.33;;
4634;SDS011;2330;48.158;11.816;2023-07-13T12:35:50;8.50;;;2.43;;
4634;SDS011;2330;48.158;11.816;2023-07-13T12:38:23;9.00;;;2.00;;
4634;SDS011;2330;48.158;11.816;2023-07-13T12:40:51;2.83;;;1.73;;
4634;SDS011;2330;48.158;11.816;2023-07-13T12:43:20;5.03;;;1.93;;
4634;SDS011;2330;48.158;11.816;2023-07-13T12:48:26;6.20;;;1.60;;
4634;SDS011;2330;48.158;11.816;2023-07-13T12:51:12;3.93;;;1.33;;
4634;SDS011;2330;48.158;11.816;2023-07-13T12:53:41;15.40;;;1.80;;
4634;SDS011;2330;48.158;11.816;2023-07-13T12:56:19;3.83;;;1.50;;
4634;SDS011;2330;48.158;11.816;2023-07-13T12:58:50;3.40;;;1.90;;
4634;SDS011;2330;48.158;11.816;2023-07-13T13:01:23;6.93;;;1.87;;
4634;SDS011;2330;48.158;11.816;2023-07-13T13:03:54;3.00;;;1.73;;
4634;SDS011;2330;48.158;11.816;2023-07-13T13:06:23;2.53;;;1.50;;
4634;SDS011;2330;48.158;11.816;2023-07-13T13:08:53;3.20;;;1.67;;
4634;SDS011;2330;48.158;11.816;2023-07-13T13:11:25;1.97;;;1.40;;
4634;SDS011;2330;48.158;11.816;2023-07-13T13:13:53;3.23;;;1.87;;
4634;SDS011;2330;48.158;11.816;2023-07-13T13:16:29;1.93;;;1.27;;
4634;SDS011;2330;48.158;11.816;2023-07-13T13:19:17;3.90;;;1.30;;
4634;SDS011;2330;48.158;11.816;2023-07-13T13:21:48;2.73;;;1.70;;
4634;SDS011;2330;48.158;11.816;2023-07-13T13:24:19;4.03;;;2.10;;
4634;SDS011;2330;48.158;11.816;2023-07-13T13:26:50;1.97;;;1.53;;
4634;SDS011;2330;48.158;11.816;2023-07-13T13:29:22;4.20;;;1.33;;
4634;SDS011;2330;48.158;11.816;2023-07-13T13:31:51;5.27;;;1.53;;
4634;SDS011;2330;48.158;11.816;2023-07-13T13:34:19;3.23;;;1.50;;
4634;SDS011;2330;48.158;11.816;2023-07-13T13:36:49;1.57;;;1.47;;
4634;SDS011;2330;48.158;11.816;2023-07-13T13:39:22;3.20;;;1.50;;
4634;SDS011;2330;48.158;11.816;2023-07-13T13:42:00;3.40;;;2.03;;
4634;SDS011;2330;48.158;11.816;2023-07-13T13:44:27;3.23;;;1.70;;
4634;SDS011;2330;48.158;11.816;2023-07-13T13:46:54;3.67;;;1.77;;
4634;SDS011;2330;48.158;11.816;2023-07-13T13:49:23;7.13;;;2.00;;
4634;SDS011;2330;48.158;11.816;2023-07-13T13:51:52;3.33;;;2.00;;
4634;SDS011;2330;48.158;11.816;2023-07-13T13:54:20;1.50;;;1.40;;
4634;SDS011;2330;48.158;11.816;2023-07-13T13:56:49;3.60;;;1.83;;
4634;SDS011;2330;48.158;11.816;2023-07-13T13:59:18;2.30;;;1.73;;
4634;SDS011;2330;48.158;11.816;2023-07-13T14:01:46;3.93;;;1.73;;
4634;SDS011;2330;48.158;11.816;2023-07-13T14:04:19;2.07;;;1.30;;
4634;SDS011;2330;48.158;11.816;2023-07-13T14:06:47;2.17;;;1.80;;
4634;SDS011;2330;48.158;11.816;2023-07-13T14:09:16;5.17;;;1.93;;
4634;SDS011;2330;48.158;11.816;2023-07-13T14:11:45;1.77;;;1.40;;
4634;SDS011;2330;48.158;11.816;2023-07-13T14:14:17;7.80;;;1.60;;
4634;SDS011;2330;48.158;11.816;2023-07-13T14:16:46;2.60;;;1.83;;
4634;SDS011;2330;48.158;11.816;2023-07-13T14:19:20;4.33;;;1.90;;
4634;SDS011;2330;48.158;11.816;2023-07-13T14:21:47;3.40;;;1.90;;
4634;SDS011;2330;48.158;11.816;2023-07-13T14:24:15;3.50;;;1.50;;
4634;SDS011;2330;48.158;11.816;2023-07-13T14:26:42;6.00;;;1.83;;
4634;SDS011;2330;48.158;11.816;2023-07-13T14:29:16;4.00;;;1.80;;
4634;SDS011;2330;48.158;11.816;2023-07-13T14:31:50;3.03;;;1.60;;
4634;SDS011;2330;48.158;11.816;2023-07-13T14:34:17;6.57;;;1.60;;
4634;SDS011;2330;48.158;11.816;2023-07-13T14:36:45;1.50;;;1.10;;
4634;SDS011;2330;48.158;11.816;2023-07-13T14:39:16;6.93;;;1.73;;
4634;SDS011;2330;48.158;11.816;2023-07-13T14:41:45;6.60;;;1.30;;
4634;SDS011;2330;48.158;11.816;2023-07-13T14:44:20;3.00;;;1.70;;
4634;SDS011;2330;48.158;11.816;2023-07-13T14:46:50;1.80;;;1.60;;
4634;SDS011;2330;48.158;11.816;2023-07-13T14:49:24;4.40;;;1.80;;
4634;SDS011;2330;48.158;11.816;2023-07-13T14:51:56;5.40;;;1.80;;
4634;SDS011;2330;48.158;11.816;2023-07-13T14:54:25;7.10;;;1.70;;
4634;SDS011;2330;48.158;11.816;2023-07-13T14:56:52;1.60;;;1.47;;
4634;SDS011;2330;48.158;11.816;2023-07-13T14:59:19;3.20;;;1.43;;
4634;SDS011;2330;48.158;11.816;2023-07-13T15:01:46;1.67;;;1.40;;
4634;SDS011;2330;48.158;11.816;2023-07-13T15:04:15;3.87;;;1.77;;
4634;SDS011;2330;48.158;11.816;2023-07-13T15:07:00;6.13;;;1.70;;
4634;SDS011;2330;48.158;11.816;2023-07-13T15:09:30;2.30;;;1.57;;
4634;SDS011;2330;48.158;11.816;2023-07-13T15:11:58;5.43;;;1.47;;
4634;SDS011;2330;48.158;11.816;2023-07-13T15:14:25;3.00;;;1.70;;
4634;SDS011;2330;48.158;11.816;2023-07-13T15:16:55;6.00;;;1.70;;
4634;SDS011;2330;48.158;11.816;2023-07-13T15:19:23;2.00;;;1.50;;
4634;SDS011;2330;48.158;11.816;2023-07-13T15:21:51;2.23;;;1.50;;
4634;SDS011;2330;48.158;11.816;2023-07-13T15:24:20;2.77;;;1.40;;
4634;SDS011;2330;48.158;11.816;2023-07-13T15:26:47;2.80;;;1.43;;
4634;SDS011;2330;48.158;11.816;2023-07-13T15:29:15;3.83;;;1.60;;
4634;SDS011;2330;48.158;11.816;2023-07-13T15:31:43;2.97;;;1.80;;
4634;SDS011;2330;48.158;11.816;2023-07-13T15:34:12;3.90;;;1.53;;
4634;SDS011;2330;48.158;11.816;2023-07-13T15:36:40;4.50;;;1.70;;
4634;SDS011;2330;48.158;11.816;2023-07-13T15:39:08;2.03;;;1.50;;
4634;SDS011;2330;48.158;11.816;2023-07-13T15:41:43;4.40;;;1.57;;
4634;SDS011;2330;48.158;11.816;2023-07-13T15:44:22;2.60;;;1.40;;